sensor_id;sensor_type;location;lat;lon;timestamp;pressure;altitude;pressure_sealevel;temperature;humidity
46718;BME280;32448;44.960;-0.698;2023-10-08T00:01:17;102106.13;;;9.50;100.00
46718;BME280;32448;44.960;-0.698;2023-10-08T00:03:45;102105.06;;;9.45;100.00
46718;BME280;32448;44.960;-0.698;2023-10-08T00:06:18;102108.63;;;9.47;100.00
46718;BME280;32448;44.960;-0.698;2023-10-08T00:08:48;102103.97;;;9.40;100.00
46718;BME280;32448;44.960;-0.698;2023-10-08T00:11:15;102078.22;;;9.28;100.00
46718;BME280;32448;44.960;-0.698;2023-10-08T00:13:43;102091.25;;;9.27;100.00
46718;BME280;32448;44.960;-0.698;2023-10-08T00:16:12;102081.56;;;9.24;100.00
46718;BME280;32448;44.960;-0.698;2023-10-08T00:18:44;102104.53;;;9.33;100.00
46718;BME280;32448;44.960;-0.698;2023-10-08T00:21:20;102107.63;;;9.24;100.00
46718;BME280;32448;44.960;-0.698;2023-10-08T00:23:55;102103.31;;;9.25;100.00
46718;BME280;32448;44.960;-0.698;2023-10-08T00:26:27;102100.72;;;9.25;100.00
46718;BME280;32448;44.960;-0.698;2023-10-08T00:29:02;102110.75;;;9.16;100.00
46718;BME280;32448;44.960;-0.698;2023-10-08T00:31:49;102118.13;;;9.06;100.00
46718;BME280;32448;44.960;-0.698;2023-10-08T00:34:17;102115.19;;;8.99;100.00
46718;BME280;32448;44.960;-0.698;2023-10-08T00:36:47;102087.75;;;8.88;100.00
46718;BME280;32448;44.960;-0.698;2023-10-08T00:39:16;102110.53;;;9.11;100.00
46718;BME280;32448;44.960;-0.698;2023-10-08T00:41:51;102109.72;;;9.12;100.00
46718;BME280;32448;44.960;-0.698;2023-10-08T00:44:26;102110.53;;;9.11;100.00
46718;BME280;32448;44.960;-0.698;2023-10-08T00:46:57;102113.22;;;9.12;100.00
46718;BME280;32448;44.960;-0.698;2023-10-08T00:49:28;102106.00;;;9.07;100.00
46718;BME280;32448;44.960;-0.698;2023-10-08T00:52:08;102115.41;;;9.03;100.00
46718;BME280;32448;44.960;-0.698;2023-10-08T00:54:39;102103.47;;;8.89;100.00
46718;BME280;32448;44.960;-0.698;2023-10-08T00:57:21;102117.66;;;8.96;100.00
46718;BME280;32448;44.960;-0.698;2023-10-08T00:59:49;102109.66;;;8.91;100.00
46718;BME280;32448;44.960;-0.698;2023-10-08T01:02:27;102114.72;;;8.88;100.00
46718;BME280;32448;44.960;-0.698;2023-10-08T01:04:56;102113.06;;;8.90;100.00
46718;BME280;32448;44.960;-0.698;2023-10-08T01:07:24;102115.34;;;8.83;100.00
46718;BME280;32448;44.960;-0.698;2023-10-08T01:09:52;102107.56;;;8.84;100.00
46718;BME280;32448;44.960;-0.698;2023-10-08T01:12:27;102116.34;;;8.86;100.00
46718;BME280;32448;44.960;-0.698;2023-10-08T01:15:01;102110.19;;;8.84;100.00
46718;BME280;32448;44.960;-0.698;2023-10-08T01:17:45;102106.19;;;8.73;100.00
46718;BME280;32448;44.960;-0.698;2023-10-08T01:20:25;102107.50;;;8.63;100.00
46718;BME280;32448;44.960;-0.698;2023-10-08T01:23:08;102102.34;;;8.65;100.00
46718;BME280;32448;44.960;-0.698;2023-10-08T01:25:41;102100.47;;;8.62;100.00
46718;BME280;32448;44.960;-0.698;2023-10-08T01:28:09;102103.94;;;8.61;100.00
46718;BME280;32448;44.960;-0.698;2023-10-08T01:30:53;102098.19;;;8.51;100.00
46718;BME280;32448;44.960;-0.698;2023-10-08T01:33:21;102092.13;;;8.50;100.00
46718;BME280;32448;44.960;-0.698;2023-10-08T01:35:49;102102.78;;;8.37;100.00
46718;BME280;32448;44.960;-0.698;2023-10-08T01:38:16;102064.97;;;8.27;100.00
46718;BME280;32448;44.960;-0.698;2023-10-08T01:40:50;102093.63;;;8.45;100.00
46718;BME280;32448;44.960;-0.698;2023-10-08T01:43:19;102084.91;;;8.45;100.00
46718;BME280;32448;44.960;-0.698;2023-10-08T01:45:47;102089.97;;;8.42;100.00
46718;BME280;32448;44.960;-0.698;2023-10-08T01:48:18;102090.75;;;8.39;100.00
46718;BME280;32448;44.960;-0.698;2023-10-08T01:50:55;102066.47;;;8.22;100.00
46718;BME280;32448;44.960;-0.698;2023-10-08T01:53:26;102092.31;;;8.35;100.00
46718;BME280;32448;44.960;-0.698;2023-10-08T01:55:53;102080.16;;;8.36;100.00
46718;BME280;32448;44.960;-0.698;2023-10-08T01:58:22;102084.56;;;8.37;100.00
46718;BME280;32448;44.960;-0.698;2023-10-08T02:00:53;102079.94;;;8.31;100.00
46718;BME280;32448;44.960;-0.698;2023-10-08T02:03:25;102091.47;;;8.36;100.00
46718;BME280;32448;44.960;-0.698;2023-10-08T02:05:54;102083.75;;;8.38;100.00
46718;BME280;32448;44.960;-0.698;2023-10-08T02:08:26;102083.66;;;8.36;100.00
46718;BME280;32448;44.960;-0.698;2023-10-08T02:10:53;102089.00;;;8.39;100.00
46718;BME280;32448;44.960;-0.698;2023-10-08T02:13:20;102084.47;;;8.35;100.00
46718;BME280;32448;44.960;-0.698;2023-10-08T02:15:51;102074.56;;;8.28;100.00
46718;BME280;32448;44.960;-0.698;2023-10-08T02:18:21;102088.06;;;8.37;100.00
46718;BME280;32448;44.960;-0.698;2023-10-08T02:20:51;102079.00;;;8.31;100.00
46718;BME280;32448;44.960;-0.698;2023-10-08T02:23:18;102080.53;;;8.26;100.00
46718;BME280;32448;44.960;-0.698;2023-10-08T02:25:45;102084.16;;;8.29;100.00
46718;BME280;32448;44.960;-0.698;2023-10-08T02:28:13;102082.97;;;8.23;100.00
46718;BME280;32448;44.960;-0.698;2023-10-08T02:30:43;102082.53;;;8.31;100.00
46718;BME280;32448;44.960;-0.698;2023-10-08T02:33:10;102078.03;;;8.29;100.00
46718;BME280;32448;44.960;-0.698;2023-10-08T02:35:45;102082.97;;;8.23;100.00
46718;BME280;32448;44.960;-0.698;2023-10-08T02:38:16;102073.09;;;8.16;100.00
46718;BME280;32448;44.960;-0.698;2023-10-08T02:40:44;102065.06;;;8.11;100.00
46718;BME280;32448;44.960;-0.698;2023-10-08T02:43:15;102070.41;;;8.14;100.00
46718;BME280;32448;44.960;-0.698;2023-10-08T02:45:44;102075.97;;;8.22;100.00
46718;BME280;32448;44.960;-0.698;2023-10-08T02:48:17;102073.44;;;8.23;100.00
46718;BME280;32448;44.960;-0.698;2023-10-08T02:50:45;102074.28;;;8.22;100.00
46718;BME280;32448;44.960;-0.698;2023-10-08T02:53:12;102081.13;;;8.20;100.00
46718;BME280;32448;44.960;-0.698;2023-10-08T02:55:45;102074.13;;;8.19;100.00
46718;BME280;32448;44.960;-0.698;2023-10-08T02:58:14;102079.25;;;8.18;100.00
46718;BME280;32448;44.960;-0.698;2023-10-08T03:00:43;102058.75;;;8.06;100.00
46718;BME280;32448;44.960;-0.698;2023-10-08T03:03:10;102090.88;;;8.24;100.00
46718;BME280;32448;44.960;-0.698;2023-10-08T03:05:50;102095.91;;;8.21;100.00
46718;BME280;32448;44.960;-0.698;2023-10-08T03:08:19;102086.13;;;8.16;100.00
46718;BME280;32448;44.960;-0.698;2023-10-08T03:10:51;102083.44;;;8.14;100.00
46718;BME280;32448;44.960;-0.698;2023-10-08T03:13:29;102078.81;;;8.09;100.00
46718;BME280;32448;44.960;-0.698;2023-10-08T03:15:57;102085.22;;;8.15;100.00
46718;BME280;32448;44.960;-0.698;2023-10-08T03:18:30;102090.56;;;8.18;100.00
46718;BME280;32448;44.960;-0.698;2023-10-08T03:21:17;102082.47;;;8.12;100.00
46718;BME280;32448;44.960;-0.698;2023-10-08T03:23:51;102079.25;;;8.18;100.00
46718;BME280;32448;44.960;-0.698;2023-10-08T03:26:19;102077.41;;;8.15;100.00
46718;BME280;32448;44.960;-0.698;2023-10-08T03:29:03;102080.28;;;8.21;100.00
46718;BME280;32448;44.960;-0.698;2023-10-08T03:31:44;102075.56;;;8.13;100.00
46718;BME280;32448;44.960;-0.698;2023-10-08T03:34:18;102042.97;;;7.85;100.00
46718;BME280;32448;44.960;-0.698;2023-10-08T03:36:47;102081.28;;;8.06;100.00
46718;BME280;32448;44.960;-0.698;2023-10-08T03:39:17;102087.16;;;8.01;100.00
46718;BME280;32448;44.960;-0.698;2023-10-08T03:41:46;102055.41;;;7.91;100.00
46718;BME280;32448;44.960;-0.698;2023-10-08T03:44:33;102082.13;;;8.04;100.00
46718;BME280;32448;44.960;-0.698;2023-10-08T03:47:04;102077.84;;;8.07;100.00
46718;BME280;32448;44.960;-0.698;2023-10-08T03:49:38;102084.78;;;8.06;100.00
46718;BME280;32448;44.960;-0.698;2023-10-08T03:52:12;102095.34;;;8.09;100.00
46718;BME280;32448;44.960;-0.698;2023-10-08T03:54:42;102085.66;;;8.07;100.00
46718;BME280;32448;44.960;-0.698;2023-10-08T03:57:15;102080.97;;;7.99;100.00
46718;BME280;32448;44.960;-0.698;2023-10-08T03:59:52;102057.78;;;7.86;100.00
46718;BME280;32448;44.960;-0.698;2023-10-08T04:02:26;102079.13;;;7.97;100.00
46718;BME280;32448;44.960;-0.698;2023-10-08T04:05:13;102069.59;;;7.97;100.00
46718;BME280;32448;44.960;-0.698;2023-10-08T04:07:47;102076.31;;;7.92;100.00
46718;BME280;32448;44.960;-0.698;2023-10-08T04:10:36;102077.13;;;7.91;100.00
46718;BME280;32448;44.960;-0.698;2023-10-08T04:13:09;102087.47;;;7.90;100.00
46718;BME280;32448;44.960;-0.698;2023-10-08T04:15:37;102064.03;;;7.72;100.00
46718;BME280;32448;44.960;-0.698;2023-10-08T04:18:09;102085.50;;;7.86;100.00
46718;BME280;32448;44.960;-0.698;2023-10-08T04:20:36;102083.72;;;7.85;100.00
46718;BME280;32448;44.960;-0.698;2023-10-08T04:23:26;102084.25;;;7.78;100.00
46718;BME280;32448;44.960;-0.698;2023-10-08T04:25:53;102087.75;;;7.78;100.00
46718;BME280;32448;44.960;-0.698;2023-10-08T04:28:24;102091.09;;;7.76;100.00
46718;BME280;32448;44.960;-0.698;2023-10-08T04:30:55;102086.34;;;7.67;100.00
46718;BME280;32448;44.960;-0.698;2023-10-08T04:33:28;102077.56;;;7.65;100.00
46718;BME280;32448;44.960;-0.698;2023-10-08T04:36:01;102077.63;;;7.66;100.00
46718;BME280;32448;44.960;-0.698;2023-10-08T04:38:28;102081.22;;;7.68;100.00
46718;BME280;32448;44.960;-0.698;2023-10-08T04:40:56;102087.50;;;7.74;100.00
46718;BME280;32448;44.960;-0.698;2023-10-08T04:43:35;102080.16;;;7.65;100.00
46718;BME280;32448;44.960;-0.698;2023-10-08T04:46:05;102082.19;;;7.71;100.00
46718;BME280;32448;44.960;-0.698;2023-10-08T04:48:46;102079.19;;;7.63;100.00
46718;BME280;32448;44.960;-0.698;2023-10-08T04:51:14;102085.50;;;7.68;100.00
46718;BME280;32448;44.960;-0.698;2023-10-08T04:53:41;102084.38;;;7.63;100.00
46718;BME280;32448;44.960;-0.698;2023-10-08T04:56:12;102081.66;;;7.60;100.00
46718;BME280;32448;44.960;-0.698;2023-10-08T04:58:50;102077.25;;;7.59;100.00
46718;BME280;32448;44.960;-0.698;2023-10-08T05:01:19;102082.66;;;7.63;100.00
46718;BME280;32448;44.960;-0.698;2023-10-08T05:03:54;102045.25;;;7.44;100.00
46718;BME280;32448;44.960;-0.698;2023-10-08T05:06:29;102094.66;;;7.60;100.00
46718;BME280;32448;44.960;-0.698;2023-10-08T05:11:40;102093.03;;;7.62;100.00
46718;BME280;32448;44.960;-0.698;2023-10-08T05:14:34;102095.19;;;7.71;100.00
46718;BME280;32448;44.960;-0.698;2023-10-08T05:17:07;102093.63;;;7.74;100.00
46718;BME280;32448;44.960;-0.698;2023-10-08T05:19:39;102113.94;;;7.81;100.00
46718;BME280;32448;44.960;-0.698;2023-10-08T05:22:13;102065.72;;;7.54;100.00
46718;BME280;32448;44.960;-0.698;2023-10-08T05:24:57;102072.13;;;7.60;100.00
46718;BME280;32448;44.960;-0.698;2023-10-08T05:27:44;102084.53;;;7.66;100.00
46718;BME280;32448;44.960;-0.698;2023-10-08T05:30:33;102105.59;;;7.71;100.00
46718;BME280;32448;44.960;-0.698;2023-10-08T05:33:20;102108.66;;;7.80;100.00
46718;BME280;32448;44.960;-0.698;2023-10-08T05:36:14;102094.13;;;7.67;100.00
46718;BME280;32448;44.960;-0.698;2023-10-08T05:38:57;102111.09;;;7.77;100.00
46718;BME280;32448;44.960;-0.698;2023-10-08T05:41:42;102092.25;;;7.64;100.00
46718;BME280;32448;44.960;-0.698;2023-10-08T05:44:19;102103.97;;;7.73;100.00
46718;BME280;32448;44.960;-0.698;2023-10-08T05:46:47;102110.28;;;7.78;100.00
46718;BME280;32448;44.960;-0.698;2023-10-08T05:49:34;102114.66;;;7.79;100.00
46718;BME280;32448;44.960;-0.698;2023-10-08T05:52:02;102098.78;;;7.73;100.00
46718;BME280;32448;44.960;-0.698;2023-10-08T05:54:41;102104.34;;;7.80;100.00
46718;BME280;32448;44.960;-0.698;2023-10-08T05:57:36;102103.13;;;7.74;100.00
46718;BME280;32448;44.960;-0.698;2023-10-08T06:00:06;102112.06;;;7.79;100.00
46718;BME280;32448;44.960;-0.698;2023-10-08T06:02:34;102103.53;;;7.81;100.00
46718;BME280;32448;44.960;-0.698;2023-10-08T06:05:06;102078.44;;;7.65;100.00
46718;BME280;32448;44.960;-0.698;2023-10-08T06:07:52;102068.41;;;7.55;100.00
46718;BME280;32448;44.960;-0.698;2023-10-08T06:10:26;102094.13;;;7.67;100.00
46718;BME280;32448;44.960;-0.698;2023-10-08T06:13:03;102112.69;;;7.73;100.00
46718;BME280;32448;44.960;-0.698;2023-10-08T06:15:45;102114.38;;;7.73;100.00
46718;BME280;32448;44.960;-0.698;2023-10-08T06:18:14;102091.47;;;7.65;100.00
46718;BME280;32448;44.960;-0.698;2023-10-08T06:20:42;102099.09;;;7.62;100.00
46718;BME280;32448;44.960;-0.698;2023-10-08T06:23:17;102112.00;;;7.77;100.00
46718;BME280;32448;44.960;-0.698;2023-10-08T06:25:47;102080.69;;;7.58;100.00
46718;BME280;32448;44.960;-0.698;2023-10-08T06:28:21;102114.75;;;7.80;100.00
46718;BME280;32448;44.960;-0.698;2023-10-08T06:30:49;102096.09;;;7.71;100.00
46718;BME280;32448;44.960;-0.698;2023-10-08T06:33:20;102106.72;;;7.76;100.00
46718;BME280;32448;44.960;-0.698;2023-10-08T06:35:48;102070.47;;;7.62;100.00
46718;BME280;32448;44.960;-0.698;2023-10-08T06:38:33;102094.91;;;7.82;100.00
46718;BME280;32448;44.960;-0.698;2023-10-08T06:41:02;102105.69;;;7.90;100.00
46718;BME280;32448;44.960;-0.698;2023-10-08T06:43:37;102111.03;;;7.93;100.00
46718;BME280;32448;44.960;-0.698;2023-10-08T06:46:05;102119.38;;;8.03;100.00
46718;BME280;32448;44.960;-0.698;2023-10-08T06:48:40;102115.88;;;8.03;100.00
46718;BME280;32448;44.960;-0.698;2023-10-08T06:51:12;102094.66;;;7.95;100.00
46718;BME280;32448;44.960;-0.698;2023-10-08T06:53:40;102108.22;;;8.06;100.00
46718;BME280;32448;44.960;-0.698;2023-10-08T06:56:08;102097.34;;;7.97;100.00
46718;BME280;32448;44.960;-0.698;2023-10-08T06:58:39;102111.94;;;8.11;100.00
46718;BME280;32448;44.960;-0.698;2023-10-08T07:01:11;102121.53;;;8.12;100.00
46718;BME280;32448;44.960;-0.698;2023-10-08T07:03:40;102127.72;;;8.14;100.00
46718;BME280;32448;44.960;-0.698;2023-10-08T07:06:08;102112.09;;;8.14;100.00
46718;BME280;32448;44.960;-0.698;2023-10-08T07:08:52;102098.84;;;8.10;100.00
46718;BME280;32448;44.960;-0.698;2023-10-08T07:11:22;102126.91;;;8.33;100.00
46718;BME280;32448;44.960;-0.698;2023-10-08T07:13:50;102126.25;;;8.37;100.00
46718;BME280;32448;44.960;-0.698;2023-10-08T07:16:19;102114.13;;;8.37;100.00
46718;BME280;32448;44.960;-0.698;2023-10-08T07:18:48;102133.19;;;8.56;100.00
46718;BME280;32448;44.960;-0.698;2023-10-08T07:21:19;102142.50;;;8.68;100.00
46718;BME280;32448;44.960;-0.698;2023-10-08T07:23:50;102111.38;;;8.54;100.00
46718;BME280;32448;44.960;-0.698;2023-10-08T07:26:27;102135.00;;;8.76;100.00
46718;BME280;32448;44.960;-0.698;2023-10-08T07:29:06;102148.38;;;8.84;100.00
46718;BME280;32448;44.960;-0.698;2023-10-08T07:31:40;102111.03;;;8.83;100.00
46718;BME280;32448;44.960;-0.698;2023-10-08T07:34:09;102122.34;;;9.03;100.00
46718;BME280;32448;44.960;-0.698;2023-10-08T07:36:53;102141.28;;;9.18;100.00
46718;BME280;32448;44.960;-0.698;2023-10-08T07:39:22;102144.09;;;9.23;100.00
46718;BME280;32448;44.960;-0.698;2023-10-08T07:41:54;102142.09;;;9.36;100.00
46718;BME280;32448;44.960;-0.698;2023-10-08T07:44:23;102085.00;;;9.04;100.00
46718;BME280;32448;44.960;-0.698;2023-10-08T07:46:51;102104.97;;;9.23;100.00
46718;BME280;32448;44.960;-0.698;2023-10-08T07:49:24;102151.00;;;9.61;100.00
46718;BME280;32448;44.960;-0.698;2023-10-08T07:51:58;102122.66;;;9.49;100.00
46718;BME280;32448;44.960;-0.698;2023-10-08T07:54:28;102160.19;;;9.72;100.00
46718;BME280;32448;44.960;-0.698;2023-10-08T07:56:56;102168.38;;;9.81;100.00
46718;BME280;32448;44.960;-0.698;2023-10-08T07:59:38;102175.72;;;9.90;100.00
46718;BME280;32448;44.960;-0.698;2023-10-08T08:02:07;102178.56;;;9.96;100.00
46718;BME280;32448;44.960;-0.698;2023-10-08T08:04:50;102170.13;;;10.01;100.00
46718;BME280;32448;44.960;-0.698;2023-10-08T08:07:19;102184.66;;;10.15;100.00
46718;BME280;32448;44.960;-0.698;2023-10-08T08:09:49;102170.38;;;10.28;100.00
46718;BME280;32448;44.960;-0.698;2023-10-08T08:12:22;102182.22;;;10.41;100.00
46718;BME280;32448;44.960;-0.698;2023-10-08T08:14:52;102173.00;;;10.50;100.00
46718;BME280;32448;44.960;-0.698;2023-10-08T08:17:20;102179.94;;;10.71;100.00
46718;BME280;32448;44.960;-0.698;2023-10-08T08:19:51;102171.53;;;10.79;100.00
46718;BME280;32448;44.960;-0.698;2023-10-08T08:22:20;102197.38;;;10.94;100.00
46718;BME280;32448;44.960;-0.698;2023-10-08T08:24:51;102181.94;;;11.00;100.00
46718;BME280;32448;44.960;-0.698;2023-10-08T08:27:25;102197.31;;;11.15;100.00
46718;BME280;32448;44.960;-0.698;2023-10-08T08:30:01;102210.63;;;11.45;100.00
46718;BME280;32448;44.960;-0.698;2023-10-08T08:32:39;102208.97;;;11.47;100.00
46718;BME280;32448;44.960;-0.698;2023-10-08T08:35:07;102217.03;;;11.53;100.00
46718;BME280;32448;44.960;-0.698;2023-10-08T08:37:36;102219.19;;;11.64;100.00
46718;BME280;32448;44.960;-0.698;2023-10-08T08:40:08;102163.88;;;11.55;100.00
46718;BME280;32448;44.960;-0.698;2023-10-08T08:42:37;102200.06;;;12.16;100.00
46718;BME280;32448;44.960;-0.698;2023-10-08T08:45:06;102214.88;;;12.41;100.00
46718;BME280;32448;44.960;-0.698;2023-10-08T08:47:37;102208.06;;;12.46;100.00
46718;BME280;32448;44.960;-0.698;2023-10-08T08:50:08;102190.59;;;12.47;100.00
46718;BME280;32448;44.960;-0.698;2023-10-08T08:52:36;102186.25;;;12.75;100.00
46718;BME280;32448;44.960;-0.698;2023-10-08T08:55:05;102196.00;;;12.80;100.00
46718;BME280;32448;44.960;-0.698;2023-10-08T08:57:37;102159.69;;;12.95;100.00
46718;BME280;32448;44.960;-0.698;2023-10-08T09:00:07;102197.28;;;13.52;100.00
46718;BME280;32448;44.960;-0.698;2023-10-08T09:02:38;102189.56;;;13.58;100.00
46718;BME280;32448;44.960;-0.698;2023-10-08T09:05:06;102199.06;;;13.86;100.00
46718;BME280;32448;44.960;-0.698;2023-10-08T09:08:04;102164.47;;;13.69;100.00
46718;BME280;32448;44.960;-0.698;2023-10-08T09:10:34;102203.84;;;14.01;100.00
46718;BME280;32448;44.960;-0.698;2023-10-08T09:13:06;102191.47;;;13.97;100.00
46718;BME280;32448;44.960;-0.698;2023-10-08T09:15:38;102194.31;;;14.06;100.00
46718;BME280;32448;44.960;-0.698;2023-10-08T09:18:05;102191.50;;;14.33;100.00
46718;BME280;32448;44.960;-0.698;2023-10-08T09:20:37;102175.72;;;14.33;100.00
46718;BME280;32448;44.960;-0.698;2023-10-08T09:23:15;102199.72;;;14.45;100.00
46718;BME280;32448;44.960;-0.698;2023-10-08T09:25:45;102208.56;;;14.47;100.00
46718;BME280;32448;44.960;-0.698;2023-10-08T09:28:17;102203.75;;;14.67;100.00
46718;BME280;32448;44.960;-0.698;2023-10-08T09:30:45;102204.56;;;14.64;100.00
46718;BME280;32448;44.960;-0.698;2023-10-08T09:33:13;102204.66;;;14.67;100.00
46718;BME280;32448;44.960;-0.698;2023-10-08T09:35:42;102183.56;;;15.06;100.00
46718;BME280;32448;44.960;-0.698;2023-10-08T09:38:12;102176.31;;;15.38;100.00
46718;BME280;32448;44.960;-0.698;2023-10-08T09:40:43;102184.31;;;15.43;100.00
46718;BME280;32448;44.960;-0.698;2023-10-08T09:43:15;102179.56;;;15.69;100.00
46718;BME280;32448;44.960;-0.698;2023-10-08T09:45:47;102179.88;;;15.85;100.00
46718;BME280;32448;44.960;-0.698;2023-10-08T09:48:20;102149.34;;;15.51;100.00
46718;BME280;32448;44.960;-0.698;2023-10-08T09:50:55;102150.78;;;16.33;100.00
46718;BME280;32448;44.960;-0.698;2023-10-08T09:53:43;102154.28;;;16.31;100.00
46718;BME280;32448;44.960;-0.698;2023-10-08T09:56:14;102136.91;;;16.45;100.00
46718;BME280;32448;44.960;-0.698;2023-10-08T09:58:45;102165.78;;;16.37;100.00
46718;BME280;32448;44.960;-0.698;2023-10-08T10:01:13;102144.47;;;16.22;100.00
46718;BME280;32448;44.960;-0.698;2023-10-08T10:03:40;102153.69;;;16.52;100.00
46718;BME280;32448;44.960;-0.698;2023-10-08T10:06:15;102159.06;;;16.58;100.00
46718;BME280;32448;44.960;-0.698;2023-10-08T10:08:43;102124.78;;;16.61;100.00
46718;BME280;32448;44.960;-0.698;2023-10-08T10:11:11;102142.91;;;16.97;100.00
46718;BME280;32448;44.960;-0.698;2023-10-08T10:13:41;102097.94;;;16.92;100.00
46718;BME280;32448;44.960;-0.698;2023-10-08T10:16:13;102150.22;;;17.19;100.00
46718;BME280;32448;44.960;-0.698;2023-10-08T10:18:43;102140.66;;;17.29;100.00
46718;BME280;32448;44.960;-0.698;2023-10-08T10:26:36;102123.66;;;17.92;100.00
46718;BME280;32448;44.960;-0.698;2023-10-08T10:31:38;102105.38;;;18.21;100.00
46718;BME280;32448;44.960;-0.698;2023-10-08T10:34:15;102100.16;;;18.31;100.00
46718;BME280;32448;44.960;-0.698;2023-10-08T10:36:45;102113.53;;;18.57;100.00
46718;BME280;32448;44.960;-0.698;2023-10-08T10:39:17;102111.06;;;18.89;100.00
46718;BME280;32448;44.960;-0.698;2023-10-08T10:42:00;102099.72;;;19.17;100.00
46718;BME280;32448;44.960;-0.698;2023-10-08T10:44:34;102094.50;;;19.55;100.00
46718;BME280;32448;44.960;-0.698;2023-10-08T10:47:04;102098.03;;;19.68;100.00
46718;BME280;32448;44.960;-0.698;2023-10-08T10:49:49;102082.13;;;19.53;100.00
46718;BME280;32448;44.960;-0.698;2023-10-08T10:52:24;102094.53;;;20.09;100.00
46718;BME280;32448;44.960;-0.698;2023-10-08T10:55:11;102069.72;;;20.37;100.00
46718;BME280;32448;44.960;-0.698;2023-10-08T10:57:47;102075.88;;;20.34;100.00
46718;BME280;32448;44.960;-0.698;2023-10-08T11:00:31;102093.50;;;20.67;100.00
46718;BME280;32448;44.960;-0.698;2023-10-08T11:03:03;102110.28;;;20.79;100.00
46718;BME280;32448;44.960;-0.698;2023-10-08T11:05:37;102093.47;;;20.83;100.00
46718;BME280;32448;44.960;-0.698;2023-10-08T11:08:08;102110.16;;;21.12;100.00
46718;BME280;32448;44.960;-0.698;2023-10-08T11:10:37;102097.69;;;21.29;100.00
46718;BME280;32448;44.960;-0.698;2023-10-08T11:13:16;102067.50;;;21.36;100.00
46718;BME280;32448;44.960;-0.698;2023-10-08T11:15:45;102100.94;;;21.74;100.00
46718;BME280;32448;44.960;-0.698;2023-10-08T11:18:18;102111.34;;;22.04;100.00
46718;BME280;32448;44.960;-0.698;2023-10-08T11:20:48;102091.88;;;21.93;100.00
46718;BME280;32448;44.960;-0.698;2023-10-08T11:23:36;102100.69;;;22.04;100.00
46718;BME280;32448;44.960;-0.698;2023-10-08T11:26:05;102103.41;;;21.95;100.00
46718;BME280;32448;44.960;-0.698;2023-10-08T11:28:39;102104.13;;;22.14;100.00
46718;BME280;32448;44.960;-0.698;2023-10-08T11:31:11;102092.69;;;22.06;100.00
46718;BME280;32448;44.960;-0.698;2023-10-08T11:33:41;102079.38;;;22.04;100.00
46718;BME280;32448;44.960;-0.698;2023-10-08T11:36:10;102080.81;;;22.39;100.00
46718;BME280;32448;44.960;-0.698;2023-10-08T11:38:46;102088.59;;;22.54;100.00
46718;BME280;32448;44.960;-0.698;2023-10-08T11:41:20;102064.34;;;22.78;100.00
46718;BME280;32448;44.960;-0.698;2023-10-08T11:43:51;102078.41;;;22.93;100.00
46718;BME280;32448;44.960;-0.698;2023-10-08T11:48:54;102072.88;;;23.08;100.00
46718;BME280;32448;44.960;-0.698;2023-10-08T11:51:25;102038.28;;;23.02;100.00
46718;BME280;32448;44.960;-0.698;2023-10-08T11:53:55;102060.28;;;23.17;100.00
46718;BME280;32448;44.960;-0.698;2023-10-08T11:56:23;102067.78;;;23.52;100.00
46718;BME280;32448;44.960;-0.698;2023-10-08T11:58:50;102059.50;;;23.68;100.00
46718;BME280;32448;44.960;-0.698;2023-10-08T12:01:18;102053.91;;;23.83;100.00
46718;BME280;32448;44.960;-0.698;2023-10-08T12:03:45;102043.19;;;23.86;100.00
46718;BME280;32448;44.960;-0.698;2023-10-08T12:06:13;102051.06;;;23.92;100.00
46718;BME280;32448;44.960;-0.698;2023-10-08T12:08:47;102029.53;;;24.01;100.00
46718;BME280;32448;44.960;-0.698;2023-10-08T12:11:16;102044.00;;;23.88;100.00
46718;BME280;32448;44.960;-0.698;2023-10-08T12:13:43;102012.34;;;23.68;100.00
46718;BME280;32448;44.960;-0.698;2023-10-08T12:16:14;102017.56;;;24.20;100.00
46718;BME280;32448;44.960;-0.698;2023-10-08T12:18:53;102030.34;;;24.06;100.00
46718;BME280;32448;44.960;-0.698;2023-10-08T12:21:26;102030.06;;;24.20;100.00
46718;BME280;32448;44.960;-0.698;2023-10-08T12:24:00;102022.19;;;24.12;100.00
46718;BME280;32448;44.960;-0.698;2023-10-08T12:26:32;102009.19;;;23.94;100.00
46718;BME280;32448;44.960;-0.698;2023-10-08T12:29:00;102018.69;;;24.09;100.00
46718;BME280;32448;44.960;-0.698;2023-10-08T12:31:31;102011.69;;;24.03;100.00
46718;BME280;32448;44.960;-0.698;2023-10-08T12:34:00;102017.31;;;24.36;100.00
46718;BME280;32448;44.960;-0.698;2023-10-08T12:36:28;101998.88;;;24.22;100.00
46718;BME280;32448;44.960;-0.698;2023-10-08T12:38:59;101991.56;;;24.31;100.00
46718;BME280;32448;44.960;-0.698;2023-10-08T12:41:34;102003.91;;;24.39;100.00
46718;BME280;32448;44.960;-0.698;2023-10-08T12:44:05;101976.13;;;24.46;100.00
46718;BME280;32448;44.960;-0.698;2023-10-08T12:46:35;101996.66;;;24.85;100.00
46718;BME280;32448;44.960;-0.698;2023-10-08T12:49:09;101995.06;;;24.75;100.00
46718;BME280;32448;44.960;-0.698;2023-10-08T12:51:37;102002.16;;;24.78;100.00
46718;BME280;32448;44.960;-0.698;2023-10-08T12:54:08;101992.28;;;24.81;100.00
46718;BME280;32448;44.960;-0.698;2023-10-08T12:56:39;101972.28;;;24.59;100.00
46718;BME280;32448;44.960;-0.698;2023-10-08T12:59:12;101985.50;;;24.65;100.00
46718;BME280;32448;44.960;-0.698;2023-10-08T13:01:48;101992.50;;;24.72;100.00
46718;BME280;32448;44.960;-0.698;2023-10-08T13:04:22;101973.13;;;24.61;100.00
46718;BME280;32448;44.960;-0.698;2023-10-08T13:06:58;101984.59;;;24.66;100.00
46718;BME280;32448;44.960;-0.698;2023-10-08T13:09:34;101971.53;;;24.91;100.00
46718;BME280;32448;44.960;-0.698;2023-10-08T13:12:04;101979.59;;;24.89;100.00
46718;BME280;32448;44.960;-0.698;2023-10-08T13:14:32;101975.19;;;24.87;100.00
46718;BME280;32448;44.960;-0.698;2023-10-08T13:17:02;101978.84;;;24.84;100.00